Time;durP1;ratioP1;P1;durP2;ratioP2;P2;SDS_P1;SDS_P2;PMS_P1;PMS_P2;Temp;Humidity;BMP_temperature;BMP_pressure;BME280_temperature;BME280_humidity;BME280_pressure;Samples;Min_cycle;Max_cycle;Signal;HPM_P1;HPM_P2
2022/03/26 00:00:45;;;;;;;97.35;50.33;;;5.70;99.90;;;;;;5033816;28;20045;-86
2022/03/26 00:03:11;;;;;;;98.70;52.10;;;5.60;99.90;;;;;;5017786;28;20057;-86
2022/03/26 00:05:37;;;;;;;100.75;50.58;;;5.60;99.90;;;;;;5000573;28;20041;-86
2022/03/26 00:08:03;;;;;;;106.00;53.08;;;5.50;99.90;;;;;;5034511;28;20045;-86
2022/03/26 00:10:29;;;;;;;110.78;55.78;;;5.50;99.90;;;;;;5016689;28;20046;-85
2022/03/26 00:12:56;;;;;;;107.38;53.78;;;5.50;99.90;;;;;;5034352;28;20478;-85
2022/03/26 00:15:22;;;;;;;121.70;58.55;;;5.50;99.90;;;;;;5032643;28;20048;-86
2022/03/26 00:17:48;;;;;;;126.63;61.15;;;5.50;99.90;;;;;;5032950;28;20053;-86
2022/03/26 00:20:13;;;;;;;123.22;60.47;;;5.60;99.90;;;;;;5015981;28;20053;-85
2022/03/26 00:22:39;;;;;;;114.95;55.47;;;6.30;99.90;;;;;;5032080;28;20481;-85
2022/03/26 00:25:06;;;;;;;123.35;59.10;;;5.80;99.90;;;;;;5032824;28;20128;-84
2022/03/26 00:27:32;;;;;;;118.68;56.55;;;5.50;99.90;;;;;;4999512;28;20115;-84
2022/03/26 00:29:57;;;;;;;114.22;54.28;;;5.80;99.90;;;;;;5032624;28;20053;-85
2022/03/26 00:32:23;;;;;;;109.50;54.20;;;5.50;99.90;;;;;;5015145;28;20076;-85
2022/03/26 00:34:49;;;;;;;122.40;57.03;;;5.70;99.90;;;;;;5032053;28;20049;-85
2022/03/26 00:37:16;;;;;;;125.03;59.80;;;5.40;99.90;;;;;;5032301;28;20525;-85
2022/03/26 00:39:42;;;;;;;130.63;61.08;;;5.40;99.90;;;;;;4999138;28;20417;-85
2022/03/26 00:42:08;;;;;;;130.95;61.08;;;5.40;99.90;;;;;;5016098;28;20053;-85
2022/03/26 00:44:35;;;;;;;136.50;62.47;;;5.40;99.90;;;;;;5015223;28;20517;-85
2022/03/26 00:47:01;;;;;;;143.45;67.07;;;5.40;99.90;;;;;;5016095;28;20397;-85
2022/03/26 00:49:27;;;;;;;148.43;66.30;;;5.40;99.90;;;;;;5032948;28;20092;-85
2022/03/26 00:51:52;;;;;;;141.20;67.22;;;5.40;99.90;;;;;;5031999;28;20149;-85
2022/03/26 00:54:18;;;;;;;147.70;67.90;;;5.50;99.90;;;;;;5031850;28;20436;-85
2022/03/26 00:56:44;;;;;;;157.88;75.40;;;5.50;99.90;;;;;;5032107;28;20551;-86
2022/03/26 00:59:12;;;;;;;154.02;69.80;;;5.50;99.90;;;;;;5032032;28;20448;-86
2022/03/26 01:01:38;;;;;;;146.98;66.43;;;5.50;99.90;;;;;;5032513;28;20060;-85
2022/03/26 01:04:04;;;;;;;146.65;65.90;;;5.50;99.90;;;;;;5032877;28;20050;-85
2022/03/26 01:06:30;;;;;;;136.65;66.70;;;5.40;99.90;;;;;;4998165;28;20520;-84
2022/03/26 01:08:56;;;;;;;130.68;61.03;;;5.80;99.90;;;;;;5031593;28;20050;-84
2022/03/26 01:11:21;;;;;;;126.85;60.95;;;5.30;99.90;;;;;;5014988;28;20058;-84
2022/03/26 01:13:48;;;;;;;133.50;61.20;;;5.70;99.90;;;;;;4998619;28;20402;-84
2022/03/26 01:16:14;;;;;;;123.85;58.63;;;5.20;99.90;;;;;;5014922;28;20099;-84
2022/03/26 01:18:40;;;;;;;123.82;58.88;;;5.20;99.90;;;;;;5014385;28;20041;-84
2022/03/26 01:21:06;;;;;;;122.35;56.90;;;5.10;99.90;;;;;;5014906;28;20136;-84
2022/03/26 01:23:32;;;;;;;125.18;59.25;;;5.10;99.90;;;;;;5014486;28;20132;-84
2022/03/26 01:25:58;;;;;;;127.53;58.78;;;5.10;99.90;;;;;;5031081;28;20053;-84
2022/03/26 01:28:24;;;;;;;120.30;56.92;;;5.00;99.90;;;;;;5030867;28;20077;-84
2022/03/26 01:30:50;;;;;;;124.68;56.35;;;4.90;99.90;;;;;;4998438;28;20065;-84
2022/03/26 01:33:16;;;;;;;117.32;56.08;;;5.10;99.90;;;;;;5032457;28;20504;-86
2022/03/26 01:35:41;;;;;;;120.68;58.10;;;5.30;99.90;;;;;;5039752;28;20041;-84
2022/03/26 01:38:07;;;;;;;115.20;55.97;;;4.80;99.90;;;;;;5054262;28;20041;-84
2022/03/26 01:40:34;;;;;;;121.15;56.45;;;4.70;99.90;;;;;;5017367;28;20045;-85
2022/03/26 01:42:59;;;;;;;121.75;57.75;;;4.70;99.90;;;;;;5006269;28;20057;-83
2022/03/26 01:45:25;;;;;;;123.57;57.92;;;4.60;99.90;;;;;;5052473;28;20049;-82
2022/03/26 01:47:51;;;;;;;132.93;60.03;;;4.60;99.90;;;;;;4998293;28;20100;-85
2022/03/26 01:50:16;;;;;;;129.80;57.92;;;4.60;99.90;;;;;;5015574;28;20049;-85
2022/03/26 01:52:42;;;;;;;128.95;58.25;;;4.50;99.90;;;;;;5014446;28;20057;-85
2022/03/26 01:55:08;;;;;;;124.82;58.45;;;4.50;99.90;;;;;;5031317;28;20064;-85
2022/03/26 01:57:34;;;;;;;130.35;58.50;;;4.50;99.90;;;;;;5032029;28;20065;-85
2022/03/26 02:00:00;;;;;;;130.18;60.83;;;4.50;99.90;;;;;;5032390;28;20128;-85
2022/03/26 02:02:26;;;;;;;125.20;57.33;;;4.80;99.90;;;;;;5036626;28;20039;-82
2022/03/26 02:04:51;;;;;;;123.03;57.05;;;4.40;99.90;;;;;;5051671;28;20077;-84
2022/03/26 02:07:17;;;;;;;120.88;55.80;;;4.40;99.90;;;;;;5022329;28;20049;-84
2022/03/26 02:09:45;;;;;;;121.20;56.47;;;5.00;99.90;;;;;;5031387;28;20045;-85
2022/03/26 02:12:24;;;;;;;122.03;57.25;;;4.30;99.90;;;;;;5015300;28;20092;-85
2022/03/26 02:14:50;;;;;;;134.07;58.10;;;4.30;99.90;;;;;;4997728;28;20417;-84
2022/03/26 02:17:19;;;;;;;131.00;60.78;;;4.20;99.90;;;;;;5014345;28;20107;-85
2022/03/26 02:19:52;;;;;;;128.30;58.58;;;4.20;99.90;;;;;;5046542;28;20076;-84
2022/03/26 02:22:17;;;;;;;124.93;57.58;;;4.10;99.90;;;;;;5014369;28;20118;-84
2022/03/26 02:24:43;;;;;;;121.15;57.08;;;4.20;99.90;;;;;;5013657;28;20057;-84
2022/03/26 02:27:09;;;;;;;131.35;61.33;;;4.10;99.90;;;;;;4997932;28;20103;-84
2022/03/26 02:29:35;;;;;;;136.20;61.20;;;4.10;99.90;;;;;;5046621;28;20138;-84
2022/03/26 02:32:01;;;;;;;133.70;60.00;;;4.10;99.90;;;;;;5031837;28;20525;-85
2022/03/26 02:34:27;;;;;;;130.52;59.17;;;4.10;99.90;;;;;;5030494;28;20103;-85
2022/03/26 02:36:56;;;;;;;135.88;63.28;;;4.00;99.90;;;;;;4997659;28;20068;-85
2022/03/26 02:39:22;;;;;;;139.73;62.35;;;4.00;99.90;;;;;;5030248;28;20060;-85
2022/03/26 02:41:48;;;;;;;137.85;61.20;;;4.00;99.90;;;;;;5013624;28;20131;-85
2022/03/26 02:44:13;;;;;;;144.45;65.70;;;4.00;99.90;;;;;;4997163;28;20056;-84
2022/03/26 02:46:39;;;;;;;153.82;66.72;;;3.90;99.90;;;;;;5013140;28;20464;-84
2022/03/26 02:49:05;;;;;;;148.98;67.20;;;3.90;99.90;;;;;;5013706;28;20099;-86
2022/03/26 02:51:30;;;;;;;169.77;70.30;;;3.90;99.90;;;;;;5030014;28;20069;-85
2022/03/26 02:53:56;;;;;;;161.38;69.88;;;4.10;99.90;;;;;;5013459;28;20084;-86
2022/03/26 02:56:22;;;;;;;171.10;73.47;;;3.90;99.90;;;;;;5030388;28;20053;-85
2022/03/26 02:58:48;;;;;;;169.82;72.70;;;4.00;99.90;;;;;;5032324;28;20051;-85
2022/03/26 03:01:14;;;;;;;168.70;71.10;;;3.90;99.90;;;;;;5007150;28;20054;-86
2022/03/26 03:03:40;;;;;;;172.85;73.78;;;3.90;99.90;;;;;;5012578;28;20084;-85
2022/03/26 03:06:05;;;;;;;168.10;73.40;;;4.40;99.90;;;;;;5029520;28;20140;-85
2022/03/26 03:08:31;;;;;;;176.23;76.10;;;3.80;99.90;;;;;;5042810;28;20053;-86
2022/03/26 03:10:57;;;;;;;178.85;77.75;;;3.80;99.90;;;;;;5019138;28;20562;-86
2022/03/26 03:13:22;;;;;;;176.80;72.97;;;3.80;99.90;;;;;;5018451;28;20110;-85
2022/03/26 03:15:52;;;;;;;180.77;76.80;;;4.30;99.90;;;;;;5017770;28;20045;-85
2022/03/26 03:18:18;;;;;;;178.20;74.93;;;3.80;99.90;;;;;;5018210;28;20060;-85
2022/03/26 03:20:44;;;;;;;180.43;76.15;;;3.80;99.90;;;;;;5017470;28;20393;-85
2022/03/26 03:23:10;;;;;;;188.82;79.57;;;3.70;99.90;;;;;;5017146;28;20054;-86
2022/03/26 03:25:36;;;;;;;181.00;75.50;;;3.70;99.90;;;;;;5050458;28;20059;-82
2022/03/26 03:28:02;;;;;;;189.77;78.15;;;3.70;99.90;;;;;;5034135;28;20060;-85
2022/03/26 03:30:28;;;;;;;201.77;79.72;;;3.70;99.90;;;;;;5035112;28;20049;-86
2022/03/26 03:32:53;;;;;;;203.38;83.28;;;3.70;99.90;;;;;;5049826;28;20410;-86
2022/03/26 03:35:20;;;;;;;217.10;86.05;;;3.80;99.90;;;;;;5017148;28;20045;-86
2022/03/26 03:37:46;;;;;;;221.32;87.75;;;3.70;99.90;;;;;;5001045;28;20052;-86
2022/03/26 03:40:13;;;;;;;209.88;84.40;;;3.70;99.90;;;;;;5000521;28;20057;-86
2022/03/26 03:42:39;;;;;;;222.05;89.35;;;4.50;99.90;;;;;;5032917;28;20606;-85
2022/03/26 03:45:05;;;;;;;217.30;86.70;;;3.70;99.90;;;;;;5016480;28;20060;-85
2022/03/26 03:47:31;;;;;;;226.38;89.30;;;3.70;99.90;;;;;;5016277;28;20083;-86
2022/03/26 03:49:57;;;;;;;215.82;86.95;;;4.30;99.90;;;;;;5016296;28;20084;-86
2022/03/26 03:52:23;;;;;;;221.80;88.13;;;5.00;99.90;;;;;;5033214;28;20136;-86
2022/03/26 03:54:48;;;;;;;227.73;89.53;;;5.10;99.90;;;;;;5016207;28;20053;-86
2022/03/26 03:57:14;;;;;;;222.60;90.00;;;3.70;99.90;;;;;;5032857;28;20049;-86
2022/03/26 03:59:41;;;;;;;230.05;90.65;;;3.70;99.90;;;;;;5016488;28;20060;-86
2022/03/26 04:02:10;;;;;;;223.38;88.32;;;3.70;99.90;;;;;;5033013;28;20052;-86
2022/03/26 04:04:42;;;;;;;220.93;87.03;;;3.70;99.90;;;;;;5016384;28;20053;-85
2022/03/26 04:07:08;;;;;;;218.57;89.30;;;4.00;99.90;;;;;;5016447;28;20143;-85
2022/03/26 04:09:34;;;;;;;223.13;88.80;;;3.60;99.90;;;;;;5033859;28;20096;-85
2022/03/26 04:12:00;;;;;;;223.05;89.57;;;3.60;99.90;;;;;;5016375;28;20429;-86
2022/03/26 04:14:26;;;;;;;221.45;89.57;;;3.60;99.90;;;;;;5016740;28;20045;-85
2022/03/26 04:16:52;;;;;;;219.23;88.20;;;3.60;99.90;;;;;;5033058;28;20061;-85
2022/03/26 04:19:18;;;;;;;232.15;89.40;;;3.60;99.90;;;;;;5016824;28;20115;-85
2022/03/26 04:21:44;;;;;;;219.25;86.53;;;3.50;99.90;;;;;;5033286;28;20481;-84
2022/03/26 04:24:10;;;;;;;232.65;91.72;;;3.50;99.90;;;;;;5053775;28;20053;-83
2022/03/26 04:26:36;;;;;;;225.43;91.95;;;4.40;99.90;;;;;;5038797;28;20130;-85
2022/03/26 04:29:01;;;;;;;221.93;90.30;;;3.50;99.90;;;;;;5026384;28;20052;-84
2022/03/26 04:31:27;;;;;;;228.57;91.90;;;4.40;99.90;;;;;;5017144;28;20053;-85
2022/03/26 04:33:53;;;;;;;231.40;88.63;;;3.50;99.90;;;;;;5033020;28;20103;-84
2022/03/26 04:36:20;;;;;;;221.18;89.43;;;4.00;99.90;;;;;;5032374;28;20053;-85
2022/03/26 04:38:47;;;;;;;219.63;88.88;;;3.50;99.90;;;;;;5027116;28;20044;-80
2022/03/26 04:41:13;;;;;;;212.57;86.70;;;3.50;99.90;;;;;;5055639;28;20049;-85
2022/03/26 04:43:39;;;;;;;233.50;90.72;;;3.50;99.90;;;;;;5018213;28;20406;-84
2022/03/26 04:46:05;;;;;;;243.45;90.05;;;4.30;99.90;;;;;;5025221;28;20030;-83
2022/03/26 04:48:31;;;;;;;231.10;89.97;;;3.40;99.90;;;;;;5034119;28;20064;-85
2022/03/26 04:50:57;;;;;;;229.88;90.10;;;3.40;99.90;;;;;;5015646;28;20470;-85
2022/03/26 04:53:23;;;;;;;238.20;90.53;;;3.40;99.90;;;;;;5017308;28;20148;-85
2022/03/26 04:55:49;;;;;;;225.85;89.40;;;3.80;99.90;;;;;;5015943;28;20052;-86
2022/03/26 04:58:14;;;;;;;241.38;92.70;;;3.40;99.90;;;;;;5033728;28;20046;-85
2022/03/26 05:00:40;;;;;;;240.52;92.97;;;3.40;99.90;;;;;;5016370;28;20076;-85
2022/03/26 05:03:07;;;;;;;243.38;90.15;;;3.50;99.90;;;;;;4999490;28;20045;-85
2022/03/26 05:05:32;;;;;;;244.35;94.20;;;3.40;99.90;;;;;;5032372;28;20053;-84
2022/03/26 05:07:59;;;;;;;255.02;96.28;;;4.20;99.90;;;;;;5032219;28;20477;-85
2022/03/26 05:10:29;;;;;;;258.48;95.00;;;4.40;99.90;;;;;;5031572;28;20482;-86
2022/03/26 05:12:55;;;;;;;251.45;93.95;;;3.40;99.90;;;;;;5031872;28;20068;-84
2022/03/26 05:15:22;;;;;;;266.05;96.70;;;3.50;99.90;;;;;;5032924;28;20053;-86
2022/03/26 05:17:48;;;;;;;268.58;99.18;;;3.50;99.90;;;;;;5015200;28;20053;-86
2022/03/26 05:20:14;;;;;;;262.17;95.47;;;3.70;99.90;;;;;;5015216;28;20057;-85
2022/03/26 05:22:47;;;;;;;259.40;96.05;;;3.50;99.90;;;;;;5013964;28;20076;-85
2022/03/26 05:25:13;;;;;;;259.87;94.53;;;3.50;99.90;;;;;;5031361;28;20046;-86
2022/03/26 05:27:43;;;;;;;260.25;97.70;;;3.50;99.90;;;;;;4998899;28;20130;-85
2022/03/26 05:30:09;;;;;;;264.08;96.35;;;3.50;99.90;;;;;;4982402;28;20099;-85
2022/03/26 05:32:35;;;;;;;266.30;97.78;;;3.50;99.90;;;;;;5014312;28;20444;-85
2022/03/26 05:35:01;;;;;;;281.50;100.78;;;3.50;99.90;;;;;;5030486;28;20114;-85
2022/03/26 05:37:26;;;;;;;267.38;97.47;;;3.60;99.90;;;;;;5031347;28;20041;-86
2022/03/26 05:39:52;;;;;;;255.45;96.13;;;3.50;99.90;;;;;;5031530;28;20052;-85
2022/03/26 05:42:18;;;;;;;273.23;97.07;;;3.50;99.90;;;;;;5030900;28;20114;-85
2022/03/26 05:44:44;;;;;;;253.95;93.05;;;3.60;99.90;;;;;;5016315;28;20348;-85
2022/03/26 05:47:09;;;;;;;264.00;99.03;;;3.60;99.90;;;;;;5014073;28;20489;-85
2022/03/26 05:49:35;;;;;;;264.92;97.93;;;3.70;99.90;;;;;;5014039;28;20049;-85
2022/03/26 05:52:01;;;;;;;253.65;96.20;;;3.90;99.90;;;;;;5031867;28;20062;-86
2022/03/26 05:54:26;;;;;;;245.48;96.50;;;5.00;99.90;;;;;;5032243;28;20076;-85
2022/03/26 05:56:52;;;;;;;217.95;91.43;;;5.60;99.90;;;;;;5033456;28;20474;-85
2022/03/26 05:59:24;;;;;;;216.50;91.75;;;4.80;99.90;;;;;;5032961;28;20406;-86
2022/03/26 06:01:51;;;;;;;206.43;89.55;;;5.10;99.90;;;;;;5015019;28;20049;-85
2022/03/26 06:04:16;;;;;;;202.15;87.90;;;5.30;99.90;;;;;;5030028;28;20155;-85
2022/03/26 06:06:43;;;;;;;196.60;88.78;;;5.40;99.90;;;;;;5031574;28;20097;-85
2022/03/26 06:09:09;;;;;;;193.40;89.15;;;5.50;99.90;;;;;;5029701;28;20482;-85
2022/03/26 06:11:34;;;;;;;199.90;90.90;;;5.70;99.90;;;;;;5030793;28;20057;-85
2022/03/26 06:14:02;;;;;;;184.95;85.50;;;5.80;99.90;;;;;;5013435;28;20053;-85
2022/03/26 06:16:28;;;;;;;188.23;87.28;;;5.80;99.90;;;;;;5034282;28;20418;-85
2022/03/26 06:18:54;;;;;;;177.45;84.55;;;6.00;99.90;;;;;;5026266;28;20049;-85
2022/03/26 06:21:19;;;;;;;174.43;82.05;;;6.20;99.90;;;;;;5005875;28;20119;-86
2022/03/26 06:23:45;;;;;;;184.93;85.03;;;6.40;99.90;;;;;;5042514;28;20042;-84
2022/03/26 06:26:11;;;;;;;177.27;84.30;;;6.70;99.90;;;;;;5036161;28;20077;-85
2022/03/26 06:28:37;;;;;;;166.88;84.53;;;7.20;99.90;;;;;;5030393;28;20457;-85
2022/03/26 06:31:03;;;;;;;164.65;82.82;;;7.70;99.90;;;;;;4996908;28;20056;-86
2022/03/26 06:33:29;;;;;;;152.10;81.35;;;8.40;99.90;;;;;;5013852;28;20045;-85
2022/03/26 06:35:55;;;;;;;150.05;82.93;;;9.30;99.90;;;;;;5013704;28;20587;-86
2022/03/26 06:38:21;;;;;;;152.75;82.13;;;9.60;99.90;;;;;;4996861;28;20053;-85
2022/03/26 06:40:46;;;;;;;149.85;82.80;;;10.00;99.90;;;;;;5030667;28;20436;-85
2022/03/26 06:43:15;;;;;;;149.65;85.30;;;10.50;99.90;;;;;;5029910;28;20045;-84
2022/03/26 06:45:41;;;;;;;143.40;81.07;;;11.10;99.90;;;;;;5051979;28;20055;-85
2022/03/26 06:48:07;;;;;;;141.80;82.35;;;11.60;99.90;;;;;;5051585;28;20142;-85
2022/03/26 06:50:33;;;;;;;129.80;80.88;;;11.70;99.90;;;;;;5025492;28;20055;-85
2022/03/26 06:52:59;;;;;;;135.77;81.57;;;11.60;99.90;;;;;;5016578;28;20049;-85
2022/03/26 06:55:25;;;;;;;131.55;80.90;;;11.20;99.90;;;;;;5029804;28;20092;-86
2022/03/26 06:57:51;;;;;;;135.13;80.63;;;11.30;99.90;;;;;;4997816;28;20065;-85
2022/03/26 07:00:17;;;;;;;125.78;78.80;;;11.50;99.90;;;;;;5029690;28;20041;-85
2022/03/26 07:02:43;;;;;;;127.93;79.40;;;11.30;99.90;;;;;;5029857;28;20053;-85
2022/03/26 07:05:09;;;;;;;129.70;76.63;;;11.20;99.90;;;;;;5029331;28;20482;-85
2022/03/26 07:07:35;;;;;;;130.43;80.93;;;11.60;99.90;;;;;;5029773;28;20053;-85
2022/03/26 07:10:02;;;;;;;123.88;75.63;;;11.80;99.90;;;;;;5013576;28;20140;-85
2022/03/26 07:12:27;;;;;;;128.52;77.55;;;12.20;99.90;;;;;;4996836;28;20053;-84
2022/03/26 07:14:53;;;;;;;127.05;76.45;;;12.10;99.90;;;;;;5029665;28;20045;-84
2022/03/26 07:17:19;;;;;;;116.10;74.82;;;12.10;99.90;;;;;;5012941;28;20486;-84
2022/03/26 07:19:44;;;;;;;121.43;73.68;;;12.50;99.90;;;;;;5029598;28;20084;-85
2022/03/26 07:22:10;;;;;;;117.38;73.70;;;12.70;99.90;;;;;;5012792;28;20140;-85
2022/03/26 07:24:36;;;;;;;110.90;68.97;;;13.00;99.90;;;;;;5029237;28;20053;-86
2022/03/26 07:27:01;;;;;;;107.50;68.10;;;13.10;99.90;;;;;;5031044;28;20107;-84
2022/03/26 07:29:27;;;;;;;109.13;67.20;;;13.70;99.90;;;;;;5030293;28;20050;-84
2022/03/26 07:31:53;;;;;;;104.30;68.75;;;13.60;99.90;;;;;;5030337;28;20057;-86
2022/03/26 07:34:19;;;;;;;99.85;66.85;;;13.60;99.90;;;;;;5012469;28;20132;-85
2022/03/26 07:36:45;;;;;;;98.72;64.18;;;14.00;99.90;;;;;;4997222;28;20597;-85
2022/03/26 07:39:12;;;;;;;102.15;65.30;;;13.80;99.90;;;;;;5030552;28;20136;-85
2022/03/26 07:41:38;;;;;;;98.78;66.25;;;13.80;99.90;;;;;;5031729;28;20050;-84
2022/03/26 07:44:04;;;;;;;96.50;61.60;;;14.40;99.90;;;;;;5051114;28;20053;-84
2022/03/26 07:46:30;;;;;;;95.75;62.42;;;14.00;99.90;;;;;;5023250;28;20063;-85
2022/03/26 07:48:55;;;;;;;94.05;62.50;;;14.70;99.90;;;;;;5034835;28;20045;-84
2022/03/26 07:51:21;;;;;;;97.40;60.90;;;15.00;99.90;;;;;;5053793;28;20060;-83
2022/03/26 07:53:46;;;;;;;91.78;60.22;;;15.00;99.90;;;;;;5037478;28;20033;-85
2022/03/26 07:56:12;;;;;;;91.60;59.95;;;15.00;99.90;;;;;;5033536;28;20041;-83
2022/03/26 07:58:38;;;;;;;90.20;59.30;;;15.10;99.90;;;;;;5034664;28;20049;-85
2022/03/26 08:01:03;;;;;;;88.53;60.22;;;15.20;99.90;;;;;;5034125;28;20048;-84
2022/03/26 08:03:29;;;;;;;87.50;60.75;;;15.10;99.90;;;;;;5032625;28;20132;-84
2022/03/26 08:05:56;;;;;;;89.50;60.20;;;15.60;99.90;;;;;;5033170;28;20064;-84
2022/03/26 08:08:22;;;;;;;84.38;56.50;;;15.50;99.90;;;;;;5000165;28;20041;-84
2022/03/26 08:10:48;;;;;;;84.35;55.83;;;15.90;99.90;;;;;;5034248;28;20072;-84
2022/03/26 08:13:13;;;;;;;85.00;57.85;;;16.10;99.90;;;;;;5034621;28;20077;-84
2022/03/26 08:15:39;;;;;;;85.68;57.70;;;16.10;99.90;;;;;;5034391;28;20136;-85
2022/03/26 08:18:05;;;;;;;87.63;59.63;;;16.70;99.90;;;;;;5016651;28;20072;-84
2022/03/26 08:20:31;;;;;;;82.93;57.50;;;16.60;99.90;;;;;;5048771;28;20051;-84
2022/03/26 08:22:57;;;;;;;81.10;55.58;;;16.90;99.90;;;;;;5015799;28;20462;-84
2022/03/26 08:28:08;;;;;;;71.90;50.58;;;17.10;99.90;;;;;;5050958;28;20049;-84
2022/03/26 08:30:34;;;;;;;72.85;48.15;;;17.10;99.90;;;;;;5051823;28;20343;-86
2022/03/26 08:33:01;;;;;;;73.75;49.35;;;17.20;99.90;;;;;;5019323;28;20053;-85
2022/03/26 08:35:31;;;;;;;70.20;48.80;;;17.10;99.90;;;;;;5016402;28;20045;-83
2022/03/26 08:37:56;;;;;;;67.97;45.67;;;17.20;99.90;;;;;;5034734;28;20053;-83
2022/03/26 08:40:22;;;;;;;63.63;42.03;;;17.80;99.90;;;;;;5051734;28;20098;-82
2022/03/26 08:42:48;;;;;;;64.30;40.47;;;18.20;99.90;;;;;;5050436;28;20484;-83
2022/03/26 08:45:13;;;;;;;60.47;37.95;;;18.90;99.90;;;;;;5050175;28;20179;-81
2022/03/26 08:47:39;;;;;;;50.13;35.00;;;19.60;98.60;;;;;;5049778;28;20052;-81
2022/03/26 08:50:06;;;;;;;39.85;30.50;;;18.40;98.10;;;;;;5050480;28;20041;-81
2022/03/26 08:52:34;;;;;;;45.50;31.27;;;20.10;97.30;;;;;;5033166;28;20076;-82
2022/03/26 08:55:01;;;;;;;45.78;30.42;;;19.90;97.50;;;;;;5048198;28;20052;-83
2022/03/26 08:57:27;;;;;;;44.08;30.92;;;19.50;99.80;;;;;;5048621;28;20547;-82
2022/03/26 08:59:53;;;;;;;44.60;30.50;;;20.10;98.00;;;;;;5051249;28;20053;-83
2022/03/26 09:02:19;;;;;;;39.95;30.98;;;21.40;96.30;;;;;;5050519;28;20041;-85
2022/03/26 09:04:45;;;;;;;43.40;31.70;;;20.90;97.40;;;;;;5051437;28;20087;-85
2022/03/26 09:07:11;;;;;;;46.58;33.35;;;20.60;96.40;;;;;;5071167;28;20048;-84
2022/03/26 09:09:36;;;;;;;45.53;32.60;;;21.50;94.80;;;;;;5071036;28;20048;-83
2022/03/26 09:12:03;;;;;;;46.95;30.95;;;21.50;95.40;;;;;;5042239;28;20084;-82
2022/03/26 09:14:28;;;;;;;48.78;31.55;;;21.30;96.30;;;;;;5048519;28;20037;-82
2022/03/26 09:16:54;;;;;;;41.90;30.63;;;20.60;97.40;;;;;;5048679;28;20068;-82
2022/03/26 09:19:20;;;;;;;42.83;32.30;;;19.90;98.60;;;;;;5049429;28;20053;-82
2022/03/26 09:21:46;;;;;;;43.28;31.85;;;19.90;98.90;;;;;;5049773;28;20037;-83
2022/03/26 09:24:14;;;;;;;40.47;30.27;;;18.80;99.90;;;;;;5017294;28;20049;-82
2022/03/26 09:26:39;;;;;;;41.10;31.92;;;19.30;99.90;;;;;;5050719;28;20056;-82
2022/03/26 09:29:05;;;;;;;39.72;30.80;;;20.00;99.90;;;;;;5030876;28;20041;-82
2022/03/26 09:31:31;;;;;;;38.45;28.83;;;19.90;99.90;;;;;;5029931;28;20136;-86
2022/03/26 09:33:57;;;;;;;36.40;28.25;;;19.90;99.30;;;;;;5047713;28;20076;-84
2022/03/26 09:36:23;;;;;;;35.55;26.40;;;19.80;99.90;;;;;;5050096;28;20377;-84
2022/03/26 09:38:48;;;;;;;33.10;23.20;;;20.70;98.80;;;;;;5034424;28;20033;-85
2022/03/26 09:41:14;;;;;;;33.47;23.95;;;20.80;97.60;;;;;;5052204;28;20037;-87
2022/03/26 09:43:40;;;;;;;30.05;22.67;;;21.40;96.30;;;;;;5040238;28;20041;-85
2022/03/26 09:46:06;;;;;;;33.25;23.65;;;20.40;98.00;;;;;;5015991;28;20045;-86
2022/03/26 09:48:32;;;;;;;29.30;22.17;;;20.10;99.10;;;;;;5042546;28;20049;-83
2022/03/26 09:50:57;;;;;;;25.42;19.58;;;20.40;98.10;;;;;;5041655;28;20424;-83
2022/03/26 09:53:24;;;;;;;24.63;18.77;;;21.10;94.70;;;;;;5038568;28;20041;-85
2022/03/26 09:55:51;;;;;;;23.85;16.58;;;20.80;95.20;;;;;;5017794;28;20457;-86
2022/03/26 09:58:16;;;;;;;22.70;17.58;;;22.00;94.40;;;;;;5050188;28;20057;-86
2022/03/26 10:00:42;;;;;;;21.88;17.25;;;21.50;94.30;;;;;;5049486;28;20112;-86
2022/03/26 10:03:08;;;;;;;20.10;16.02;;;21.20;94.20;;;;;;5033102;28;20111;-86
2022/03/26 10:05:35;;;;;;;19.55;12.90;;;21.60;94.00;;;;;;5050237;28;20052;-87
2022/03/26 10:08:27;;;;;;;21.52;15.48;;;22.40;91.50;;;;;;5032929;28;20041;-85
2022/03/26 10:10:52;;;;;;;23.83;17.80;;;21.90;92.00;;;;;;5045714;28;20057;-87
2022/03/26 10:13:32;;;;;;;23.33;15.90;;;22.20;91.70;;;;;;5049914;28;20075;-85
2022/03/26 10:16:17;;;;;;;21.83;16.02;;;21.20;93.90;;;;;;5033889;28;20041;-85
2022/03/26 10:18:44;;;;;;;20.27;16.15;;;21.10;94.20;;;;;;5032895;28;20460;-87
2022/03/26 10:21:15;;;;;;;23.25;17.40;;;21.20;93.80;;;;;;5001463;28;20055;-88
2022/03/26 10:23:45;;;;;;;23.38;18.15;;;21.00;94.70;;;;;;5017585;28;20052;-87
2022/03/26 10:26:12;;;;;;;24.92;15.68;;;19.70;96.80;;;;;;5033668;28;20110;-87
2022/03/26 10:28:40;;;;;;;21.80;15.98;;;19.80;96.60;;;;;;5017187;28;20114;-89
2022/03/26 10:34:07;;;;;;;23.42;16.00;;;20.10;97.40;;;;;;5035831;28;20060;-87
2022/03/26 10:36:40;;;;;;;27.20;16.73;;;20.00;97.70;;;;;;5000771;28;20049;-85
2022/03/26 10:39:07;;;;;;;24.42;16.98;;;19.60;98.80;;;;;;5033611;28;20068;-86
2022/03/26 10:41:33;;;;;;;19.52;14.40;;;19.50;99.20;;;;;;5016969;28;20096;-83
2022/03/26 10:44:11;;;;;;;22.27;15.85;;;18.70;99.80;;;;;;5001395;28;20176;-87
2022/03/26 10:46:56;;;;;;;17.05;14.73;;;18.60;99.90;;;;;;5031339;28;20049;-84
2022/03/26 10:49:26;;;;;;;19.50;13.85;;;18.80;99.90;;;;;;5067241;28;20041;-87
2022/03/26 10:51:53;;;;;;;16.70;10.73;;;19.20;99.90;;;;;;5049490;28;20056;-87
2022/03/26 10:54:18;;;;;;;18.88;11.73;;;19.90;97.70;;;;;;5031566;28;20136;-84
2022/03/26 10:56:45;;;;;;;14.50;11.00;;;19.60;97.60;;;;;;5007050;28;20065;-82
2022/03/26 10:59:11;;;;;;;18.13;12.98;;;19.60;98.30;;;;;;5046641;28;20386;-82
2022/03/26 11:01:37;;;;;;;18.25;12.20;;;19.00;99.90;;;;;;5046654;28;20037;-84
2022/03/26 11:04:03;;;;;;;14.63;9.95;;;18.20;99.90;;;;;;5048247;28;20125;-85
2022/03/26 11:06:29;;;;;;;14.07;12.05;;;18.90;99.90;;;;;;5049912;28;20033;-84
2022/03/26 11:09:02;;;;;;;15.40;11.65;;;19.10;99.90;;;;;;5048039;28;20041;-82
2022/03/26 11:11:27;;;;;;;17.10;11.32;;;18.50;99.90;;;;;;5048564;28;20056;-83
2022/03/26 11:13:55;;;;;;;14.32;12.02;;;19.50;99.10;;;;;;5047979;28;20107;-84
2022/03/26 11:16:26;;;;;;;16.42;10.82;;;19.20;99.90;;;;;;4998899;28;20077;-84
2022/03/26 11:19:05;;;;;;;15.82;10.70;;;18.40;99.90;;;;;;5047751;28;20037;-83
2022/03/26 11:21:55;;;;;;;16.75;11.82;;;18.20;99.90;;;;;;5029757;28;20119;-84
2022/03/26 11:24:53;;;;;;;14.90;10.43;;;17.60;99.90;;;;;;5049484;28;20123;-82
2022/03/26 11:27:50;;;;;;;12.60;8.15;;;18.30;99.90;;;;;;5039753;28;20029;-82
2022/03/26 11:30:51;;;;;;;13.65;10.60;;;18.60;99.90;;;;;;5062257;28;20045;-81
2022/03/26 11:33:18;;;;;;;17.23;11.00;;;18.30;99.90;;;;;;5063340;28;20370;-85
2022/03/26 11:36:00;;;;;;;14.35;10.68;;;17.60;99.90;;;;;;5021822;28;20052;-84
2022/03/26 11:38:28;;;;;;;41.85;11.35;;;17.50;99.90;;;;;;5037773;28;20040;-83
2022/03/26 11:41:01;;;;;;;16.20;10.20;;;17.40;99.90;;;;;;5037039;28;20102;-85
2022/03/26 11:43:43;;;;;;;14.10;9.37;;;17.60;99.90;;;;;;5021107;28;20056;-84
2022/03/26 11:52:11;;;;;;;15.40;9.48;;;17.70;99.90;;;;;;5052816;28;20470;-84
2022/03/26 11:54:36;;;;;;;10.68;6.10;;;17.70;99.90;;;;;;5032862;28;20103;-85
2022/03/26 11:57:14;;;;;;;12.40;8.05;;;18.00;99.90;;;;;;5031938;28;20052;-85
2022/03/26 11:59:41;;;;;;;17.98;8.70;;;17.90;99.90;;;;;;5052847;28;20503;-84
2022/03/26 12:02:23;;;;;;;10.30;6.80;;;17.90;99.90;;;;;;5052804;28;20041;-84
2022/03/26 12:04:49;;;;;;;14.98;8.73;;;18.00;99.90;;;;;;5036399;28;20049;-84
2022/03/26 12:07:15;;;;;;;12.23;8.00;;;17.70;99.90;;;;;;5036466;28;20047;-83
2022/03/26 12:09:41;;;;;;;10.73;8.35;;;17.50;99.90;;;;;;5049604;28;20456;-83
2022/03/26 12:12:16;;;;;;;10.23;6.50;;;17.10;99.90;;;;;;5035180;28;20045;-84
2022/03/26 12:15:08;;;;;;;9.43;6.35;;;17.90;99.90;;;;;;5049693;28;20037;-83
2022/03/26 12:18:14;;;;;;;9.27;6.53;;;17.60;99.90;;;;;;5046338;28;20385;-83
2022/03/26 12:20:46;;;;;;;9.20;6.80;;;17.40;99.90;;;;;;5047030;28;20045;-82
2022/03/26 12:23:31;;;;;;;10.15;6.80;;;17.40;99.90;;;;;;5052776;28;20037;-82
2022/03/26 12:26:05;;;;;;;10.70;7.07;;;17.70;99.90;;;;;;5050931;28;20076;-83
2022/03/26 12:28:34;;;;;;;9.45;6.63;;;17.10;99.90;;;;;;5051357;28;20091;-82
2022/03/26 12:31:04;;;;;;;6.32;4.82;;;17.80;99.90;;;;;;5048801;28;20132;-84
2022/03/26 12:33:39;;;;;;;7.15;5.97;;;17.70;99.90;;;;;;5048218;28;20044;-83
2022/03/26 12:36:05;;;;;;;8.13;6.18;;;17.80;99.90;;;;;;5035367;28;20109;-84
2022/03/26 12:38:30;;;;;;;8.32;6.53;;;18.30;99.90;;;;;;5035472;28;20049;-85
2022/03/26 12:41:01;;;;;;;8.40;6.82;;;17.90;99.90;;;;;;5051525;28;20496;-83